Time;durP1;ratioP1;P1;durP2;ratioP2;P2;SDS_P1;SDS_P2;PMS_P1;PMS_P2;Temp;Humidity;BMP_temperature;BMP_pressure;BME280_temperature;BME280_humidity;BME280_pressure;Samples;Min_cycle;Max_cycle;Signal;HPM_P1;HPM_P2
2022/07/30 00:01:33;;;;;;;1.45;0.70;;;;;;;29.76;33.14;101835.28;5095967;28;20027;-48
2022/07/30 00:04:01;;;;;;;1.38;0.80;;;;;;;29.80;32.82;101839.72;5114407;28;20023;-45
2022/07/30 00:06:30;;;;;;;1.55;0.70;;;;;;;29.79;33.03;101841.47;5096031;28;20107;-48
2022/07/30 00:08:59;;;;;;;2.55;0.80;;;;;;;29.71;32.96;101836.16;5114041;28;20035;-50
2022/07/30 00:11:27;;;;;;;1.52;0.80;;;;;;;29.68;33.29;101836.19;5113822;28;20028;-52
2022/07/30 00:13:56;;;;;;;3.08;1.30;;;;;;;29.68;33.38;101843.22;5114326;28;20027;-50
2022/07/30 00:16:25;;;;;;;5.28;1.55;;;;;;;29.68;32.78;101848.50;5114136;28;20040;-47
2022/07/30 00:18:53;;;;;;;3.55;0.73;;;;;;;29.65;33.15;101845.84;5113704;28;20024;-57
2022/07/30 00:21:22;;;;;;;2.70;0.80;;;;;;;29.56;33.19;101833.47;5113595;28;20094;-46
2022/07/30 00:23:50;;;;;;;1.55;0.80;;;;;;;29.65;33.10;101837.91;5113991;28;20043;-49
2022/07/30 00:26:19;;;;;;;2.03;0.70;;;;;;;29.66;33.32;101837.03;5113476;28;20035;-50
2022/07/30 00:28:47;;;;;;;4.88;1.00;;;;;;;29.67;33.08;101834.41;5113375;28;20023;-51
2022/07/30 00:31:16;;;;;;;3.75;1.10;;;;;;;29.59;33.09;101828.19;5113447;28;20497;-50
2022/07/30 00:33:45;;;;;;;2.40;0.95;;;;;;;29.60;33.32;101831.75;5113828;28;20024;-46
2022/07/30 00:36:13;;;;;;;1.25;0.70;;;;;;;29.55;33.35;101837.91;5114074;28;20059;-48
2022/07/30 00:38:42;;;;;;;2.75;0.93;;;;;;;29.58;33.44;101828.22;5113859;28;20034;-53
2022/07/30 00:41:10;;;;;;;1.38;0.90;;;;;;;29.60;33.34;101829.09;5113497;28;20521;-51
2022/07/30 00:43:38;;;;;;;1.48;0.70;;;;;;;29.55;33.40;101818.50;5094946;28;20470;-52
2022/07/30 00:46:07;;;;;;;2.30;0.90;;;;;;;29.47;33.66;101821.13;5095479;28;20055;-48
2022/07/30 00:48:35;;;;;;;1.55;0.98;;;;;;;29.45;33.26;101814.06;5113361;28;20190;-48
2022/07/30 00:51:04;;;;;;;1.42;0.65;;;;;;;29.44;33.63;101823.78;5113523;28;20363;-49
2022/07/30 00:53:33;;;;;;;1.23;0.75;;;;;;;29.50;33.07;101825.53;5113455;28;20580;-48
2022/07/30 00:56:01;;;;;;;3.17;0.80;;;;;;;29.47;33.41;101818.47;5113435;28;20028;-56
2022/07/30 00:58:30;;;;;;;3.30;0.90;;;;;;;29.44;33.39;101826.41;5113229;28;20379;-51
2022/07/30 01:00:58;;;;;;;1.10;0.75;;;;;;;29.45;33.53;101828.19;5113515;28;20026;-49
2022/07/30 01:03:26;;;;;;;1.30;0.70;;;;;;;29.44;33.25;101821.13;5113355;28;20024;-46
2022/07/30 01:05:55;;;;;;;1.80;0.80;;;;;;;29.37;33.40;101824.63;5113553;28;20027;-48
2022/07/30 01:08:23;;;;;;;1.13;0.80;;;;;;;29.37;33.63;101829.91;5095048;28;20073;-47
2022/07/30 01:10:51;;;;;;;3.15;1.00;;;;;;;29.36;33.49;101844.88;5113134;28;20111;-49
2022/07/30 01:13:20;;;;;;;3.67;1.00;;;;;;;29.38;33.19;101843.09;5095180;28;20028;-51
2022/07/30 01:15:49;;;;;;;2.65;1.10;;;;;;;29.33;33.41;101841.28;5113446;28;20055;-50
2022/07/30 01:18:18;;;;;;;3.50;0.80;;;;;;;29.29;33.53;101844.81;5113110;28;20418;-48
2022/07/30 01:21:05;;;;;;;1.55;0.80;;;;;;;29.28;33.35;101856.28;5095079;28;20032;-49
2022/07/30 01:23:38;;;;;;;1.42;0.70;;;;;;;29.26;33.76;101865.06;5113353;28;20050;-46
2022/07/30 01:26:08;;;;;;;1.95;0.90;;;;;;;29.23;33.53;101854.47;5095025;28;20375;-51
2022/07/30 01:28:41;;;;;;;1.77;0.85;;;;;;;29.20;33.56;101857.09;5095005;28;20024;-46
2022/07/30 01:31:12;;;;;;;1.08;0.60;;;;;;;29.19;33.61;101850.06;5113160;28;20063;-57
2022/07/30 01:33:43;;;;;;;1.98;1.02;;;;;;;29.16;33.72;101844.75;5095023;28;20429;-47
2022/07/30 01:36:15;;;;;;;1.92;0.70;;;;;;;29.16;34.06;101844.75;5112807;28;20106;-47
2022/07/30 01:38:45;;;;;;;2.55;0.57;;;;;;;29.14;33.92;101853.56;5112726;28;20027;-50
2022/07/30 01:41:13;;;;;;;1.55;0.75;;;;;;;29.19;33.89;101844.78;5095239;28;20023;-47
2022/07/30 01:43:43;;;;;;;1.05;0.80;;;;;;;29.18;33.67;101852.69;5114024;28;20031;-50
2022/07/30 01:46:12;;;;;;;2.05;0.93;;;;;;;29.14;33.55;101848.28;5117187;28;20023;-49
2022/07/30 01:48:41;;;;;;;2.90;0.98;;;;;;;29.09;33.82;101845.59;5116871;28;20027;-50
2022/07/30 01:51:11;;;;;;;1.50;0.73;;;;;;;29.14;33.96;101848.28;5099180;28;20031;-51
2022/07/30 01:53:41;;;;;;;2.60;0.93;;;;;;;29.13;33.81;101846.50;5098008;28;20063;-46
2022/07/30 01:56:12;;;;;;;1.58;0.70;;;;;;;29.09;33.79;101848.25;5098389;28;20432;-50
2022/07/30 01:58:41;;;;;;;1.48;0.77;;;;;;;29.14;33.57;101846.50;5098107;28;20386;-48
2022/07/30 02:01:09;;;;;;;1.30;0.70;;;;;;;29.08;34.03;101846.47;5116285;28;20050;-46
2022/07/30 02:03:38;;;;;;;2.28;0.90;;;;;;;28.96;34.00;101834.09;5116452;28;20039;-46
2022/07/30 02:06:13;;;;;;;1.85;0.80;;;;;;;29.02;33.86;101833.22;5116464;28;20491;-47
2022/07/30 02:08:45;;;;;;;2.42;0.60;;;;;;;29.00;33.79;101835.88;5098111;28;20047;-48
2022/07/30 02:14:07;;;;;;;2.00;0.90;;;;;;;28.96;34.01;101832.31;5108775;28;20032;-46
2022/07/30 02:16:39;;;;;;;1.55;0.80;;;;;;;28.88;34.05;101831.41;5098536;28;20027;-50
2022/07/30 02:19:13;;;;;;;3.10;0.93;;;;;;;28.77;33.96;101817.25;5098183;28;20027;-50
2022/07/30 02:21:46;;;;;;;3.22;0.80;;;;;;;28.82;34.30;101827.84;5098320;28;20169;-50
2022/07/30 02:24:18;;;;;;;2.28;0.95;;;;;;;28.69;34.17;101827.75;5097749;28;20130;-48
2022/07/30 02:26:49;;;;;;;1.13;0.50;;;;;;;28.74;34.27;101833.94;5097180;28;20140;-49
2022/07/30 02:29:20;;;;;;;1.42;0.90;;;;;;;28.75;34.24;101848.06;5098022;28;20035;-45
2022/07/30 02:31:49;;;;;;;1.83;0.80;;;;;;;28.76;34.11;101834.84;5098178;28;20047;-49
2022/07/30 02:34:17;;;;;;;1.00;0.63;;;;;;;28.72;34.33;101845.34;5097634;28;20032;-53
2022/07/30 02:36:46;;;;;;;1.63;0.80;;;;;;;28.62;34.51;101845.31;5097885;28;20028;-47
2022/07/30 02:39:16;;;;;;;2.58;0.93;;;;;;;28.62;34.28;101847.94;5115312;28;20027;-52
2022/07/30 02:41:45;;;;;;;1.90;0.80;;;;;;;28.68;34.29;101846.19;5097675;28;20420;-57
2022/07/30 02:44:14;;;;;;;1.67;0.90;;;;;;;28.64;34.28;101843.53;5097551;28;20027;-47
2022/07/30 02:46:42;;;;;;;1.42;0.80;;;;;;;28.56;34.31;101841.69;5097533;28;20024;-46
2022/07/30 02:49:11;;;;;;;1.73;0.88;;;;;;;28.54;34.08;101846.13;5097491;28;20020;-53
2022/07/30 02:51:41;;;;;;;3.30;1.15;;;;;;;28.49;34.57;101838.13;5097803;28;20034;-51
2022/07/30 02:54:09;;;;;;;2.97;1.00;;;;;;;28.51;34.29;101846.97;5115189;28;20028;-57
2022/07/30 02:56:39;;;;;;;0.98;0.52;;;;;;;28.45;34.51;101834.59;5096379;28;20016;-47
2022/07/30 02:59:08;;;;;;;3.40;0.90;;;;;;;28.49;34.12;101835.50;5097182;28;20478;-51
2022/07/30 03:01:37;;;;;;;0.63;0.60;;;;;;;28.46;34.22;101835.50;5115026;28;20035;-49
2022/07/30 03:04:05;;;;;;;3.55;0.75;;;;;;;28.40;34.34;101831.03;5097141;28;20039;-50
2022/07/30 03:06:34;;;;;;;1.77;0.80;;;;;;;28.38;34.48;101838.06;5115436;28;20022;-49
2022/07/30 03:09:04;;;;;;;1.38;1.00;;;;;;;28.34;34.68;101826.59;5097015;28;20058;-57
2022/07/30 03:11:33;;;;;;;2.17;0.77;;;;;;;28.37;34.42;101831.03;5097048;28;20024;-52
2022/07/30 03:14:02;;;;;;;1.67;0.98;;;;;;;28.35;34.37;101831.00;5096976;28;20035;-46
2022/07/30 03:16:31;;;;;;;2.35;1.20;;;;;;;28.29;34.53;101823.06;5115265;28;20047;-46
2022/07/30 03:19:01;;;;;;;1.35;1.00;;;;;;;28.25;34.61;101821.25;5115197;28;20015;-45
2022/07/30 03:21:32;;;;;;;1.45;0.73;;;;;;;28.26;34.77;101817.75;5114606;28;20041;-45
2022/07/30 03:24:02;;;;;;;1.48;0.75;;;;;;;28.23;34.64;101823.00;5114799;28;20031;-56
2022/07/30 03:26:31;;;;;;;1.92;0.70;;;;;;;28.22;34.76;101831.78;5097255;28;20028;-49
2022/07/30 03:29:00;;;;;;;2.95;0.90;;;;;;;28.17;34.86;101830.84;5114423;28;20104;-56
2022/07/30 03:31:29;;;;;;;1.05;0.77;;;;;;;28.15;34.68;101820.28;5096619;28;20032;-47
2022/07/30 03:33:58;;;;;;;2.50;0.90;;;;;;;28.24;34.65;101831.78;5114519;28;20076;-50
2022/07/30 03:36:27;;;;;;;1.67;0.73;;;;;;;28.26;34.73;101836.22;5114565;28;20028;-47
2022/07/30 03:38:56;;;;;;;2.03;0.80;;;;;;;28.19;34.50;101830.00;5114126;28;20063;-48
2022/07/30 03:41:25;;;;;;;2.78;1.05;;;;;;;28.13;34.72;101831.72;5113841;28;20072;-47
2022/07/30 03:43:53;;;;;;;1.50;0.82;;;;;;;28.05;34.81;101827.19;5079777;28;20077;-49
2022/07/30 03:46:23;;;;;;;2.72;1.00;;;;;;;28.11;34.65;101836.09;5114411;28;20390;-46
2022/07/30 03:48:53;;;;;;;1.35;0.70;;;;;;;28.10;34.82;101832.53;5114126;28;20536;-49
2022/07/30 03:51:21;;;;;;;2.85;1.02;;;;;;;28.13;34.71;101831.72;5096044;28;20031;-49
2022/07/30 03:53:50;;;;;;;2.28;1.25;;;;;;;28.17;34.45;101830.84;5096370;28;20493;-48
2022/07/30 03:56:19;;;;;;;1.25;0.70;;;;;;;28.15;34.66;101829.94;5114115;28;20031;-49
2022/07/30 03:58:48;;;;;;;0.80;0.60;;;;;;;28.16;34.58;101827.34;5096539;28;20053;-53
2022/07/30 04:01:16;;;;;;;2.70;0.80;;;;;;;28.12;34.59;101835.22;5113913;28;20036;-45
2022/07/30 04:03:45;;;;;;;1.35;0.98;;;;;;;28.15;34.43;101841.41;5096266;28;20027;-49
2022/07/30 04:06:13;;;;;;;3.13;0.70;;;;;;;28.15;34.59;101835.22;5095348;28;20032;-50
2022/07/30 04:08:42;;;;;;;1.65;0.70;;;;;;;28.17;34.56;101837.03;5113926;28;20466;-48
2022/07/30 04:11:10;;;;;;;1.50;0.80;;;;;;;28.10;34.43;101837.81;5114092;28;20391;-55
2022/07/30 04:13:39;;;;;;;1.30;0.90;;;;;;;28.08;34.66;101836.03;5113858;28;20514;-47
2022/07/30 04:16:14;;;;;;;1.92;0.80;;;;;;;28.06;34.53;101838.63;5114109;28;20034;-49
2022/07/30 04:18:48;;;;;;;1.27;0.80;;;;;;;27.96;34.74;101839.41;5095886;28;20019;-47
2022/07/30 04:21:18;;;;;;;4.43;1.17;;;;;;;28.02;34.66;101839.50;5095959;28;20117;-47
2022/07/30 04:23:48;;;;;;;1.55;0.75;;;;;;;27.96;34.72;101842.94;5096188;28;20406;-49
2022/07/30 04:26:18;;;;;;;0.60;0.60;;;;;;;28.02;34.57;101836.84;5113979;28;20024;-48
2022/07/30 04:28:47;;;;;;;2.75;1.13;;;;;;;28.01;34.62;101843.00;5095786;28;20028;-48
2022/07/30 04:31:16;;;;;;;2.28;0.98;;;;;;;28.01;34.51;101849.13;5095538;28;20496;-49
2022/07/30 04:33:46;;;;;;;2.65;0.93;;;;;;;27.97;34.63;101851.72;5113906;28;20612;-57
2022/07/30 04:36:15;;;;;;;1.38;0.70;;;;;;;27.93;34.69;101848.19;5095793;28;20110;-57
2022/07/30 04:38:44;;;;;;;2.40;0.93;;;;;;;27.90;34.61;101849.03;5113824;28;20030;-46
2022/07/30 04:41:13;;;;;;;1.00;0.60;;;;;;;27.90;34.67;101853.44;5113261;28;20032;-52
2022/07/30 04:43:42;;;;;;;1.48;0.88;;;;;;;27.95;34.62;101854.38;5113447;28;20031;-47
2022/07/30 04:46:10;;;;;;;1.77;0.68;;;;;;;27.94;34.48;101847.31;5113488;28;20032;-52
2022/07/30 04:48:39;;;;;;;2.22;0.90;;;;;;;27.93;34.63;101857.84;5113791;28;20024;-50
2022/07/30 04:51:12;;;;;;;1.45;0.80;;;;;;;27.84;34.78;101856.88;5113472;28;20019;-48
2022/07/30 04:53:41;;;;;;;1.55;0.70;;;;;;;27.84;34.65;101861.25;5094915;28;20103;-50
2022/07/30 04:56:11;;;;;;;1.50;0.70;;;;;;;27.78;34.72;101856.81;5095584;28;20047;-53
2022/07/30 04:58:40;;;;;;;1.52;0.60;;;;;;;27.70;34.85;101835.63;5095446;28;20390;-52
2022/07/30 05:01:10;;;;;;;1.65;1.02;;;;;;;27.81;34.85;101861.22;5095948;28;20378;-49
2022/07/30 05:03:39;;;;;;;2.78;0.90;;;;;;;27.79;34.72;101863.00;5095559;28;20024;-47
2022/07/30 05:06:08;;;;;;;2.15;0.70;;;;;;;27.82;34.59;101870.91;5095438;28;20122;-49
2022/07/30 05:08:37;;;;;;;2.17;0.98;;;;;;;27.81;34.56;101862.13;5113232;28;20550;-50
2022/07/30 05:11:05;;;;;;;3.35;1.05;;;;;;;27.71;34.61;101855.00;5095096;28;20129;-53
2022/07/30 05:13:34;;;;;;;1.00;0.63;;;;;;;27.75;34.74;101865.59;5112511;28;20058;-49
2022/07/30 05:16:02;;;;;;;1.13;0.70;;;;;;;27.71;34.70;101865.53;5113116;28;20478;-46
2022/07/30 05:18:31;;;;;;;1.00;0.60;;;;;;;27.77;34.61;101880.53;5114329;28;20378;-47
2022/07/30 05:21:00;;;;;;;2.22;0.90;;;;;;;27.71;34.81;101882.22;5117279;28;20398;-47
2022/07/30 05:23:28;;;;;;;2.45;0.80;;;;;;;27.70;35.08;101884.84;5116809;28;20047;-47
2022/07/30 05:25:57;;;;;;;1.58;0.80;;;;;;;27.62;34.94;101871.59;5116947;28;20028;-48
2022/07/30 05:28:26;;;;;;;1.77;0.80;;;;;;;27.56;34.90;101874.13;5098781;28;20409;-47
2022/07/30 05:30:55;;;;;;;0.80;0.60;;;;;;;27.66;34.77;101880.41;5116891;28;20027;-45
2022/07/30 05:33:23;;;;;;;2.65;0.85;;;;;;;27.65;34.88;101882.13;5117355;28;20111;-50
2022/07/30 05:35:53;;;;;;;5.28;1.20;;;;;;;27.62;34.89;101884.75;5117049;28;20016;-46
2022/07/30 05:38:21;;;;;;;1.80;0.90;;;;;;;27.63;35.09;101881.25;5116951;28;20023;-49
2022/07/30 05:40:51;;;;;;;1.77;0.60;;;;;;;27.56;34.82;101879.41;5116621;28;20020;-45
2022/07/30 05:43:19;;;;;;;0.80;0.50;;;;;;;27.56;35.10;101884.69;5116832;28;20474;-50
2022/07/30 05:45:48;;;;;;;2.50;1.20;;;;;;;27.59;35.15;101882.09;5116704;28;20024;-46
2022/07/30 05:48:16;;;;;;;1.67;0.88;;;;;;;27.55;35.05;101870.59;5116556;28;20089;-46
2022/07/30 05:50:44;;;;;;;2.15;0.65;;;;;;;27.62;35.05;101876.84;5116812;28;20131;-55
2022/07/30 05:53:12;;;;;;;1.23;0.70;;;;;;;27.50;34.98;101864.41;5116997;28;20035;-57
2022/07/30 05:55:41;;;;;;;1.95;1.10;;;;;;;27.67;35.12;101882.19;5116849;28;20482;-49
2022/07/30 05:58:09;;;;;;;2.15;0.68;;;;;;;27.68;35.27;101874.28;5116043;28;20031;-45
2022/07/30 06:00:38;;;;;;;3.15;0.60;;;;;;;27.75;35.05;101881.41;5116558;28;20027;-47
2022/07/30 06:03:07;;;;;;;3.33;0.68;;;;;;;27.85;35.01;101871.84;5116687;28;20426;-46
2022/07/30 06:05:35;;;;;;;0.98;0.60;;;;;;;27.94;35.00;101870.16;5116301;28;20059;-49
2022/07/30 06:08:03;;;;;;;1.50;0.70;;;;;;;28.03;34.56;101876.41;5116124;28;20024;-49
2022/07/30 06:10:33;;;;;;;2.40;0.88;;;;;;;28.02;34.70;101874.63;5116229;28;20028;-45
2022/07/30 06:13:01;;;;;;;1.38;0.73;;;;;;;28.04;34.65;101877.31;5116333;28;20027;-52
2022/07/30 06:15:31;;;;;;;0.80;0.50;;;;;;;28.02;34.87;101868.50;5116020;28;20382;-57
2022/07/30 06:17:59;;;;;;;1.55;0.70;;;;;;;28.05;34.89;101869.41;5116061;28;20023;-47
2022/07/30 06:20:28;;;;;;;1.20;0.70;;;;;;;28.06;34.90;101870.28;5115903;28;20152;-47
2022/07/30 06:22:57;;;;;;;1.65;0.70;;;;;;;28.05;34.85;101868.50;5116009;28;20073;-46
2022/07/30 06:25:25;;;;;;;3.05;0.95;;;;;;;28.09;34.94;101872.06;5116390;28;20024;-48
2022/07/30 06:27:54;;;;;;;0.70;0.50;;;;;;;28.16;35.08;101873.91;5097635;28;20479;-46
2022/07/30 06:30:23;;;;;;;0.95;0.50;;;;;;;28.21;35.17;101877.50;5115834;28;20088;-47
2022/07/30 06:32:51;;;;;;;0.90;0.50;;;;;;;28.24;35.21;101877.53;5115979;28;20080;-48
2022/07/30 06:35:19;;;;;;;1.13;0.50;;;;;;;28.29;35.29;101881.09;5116093;28;20394;-45
2022/07/30 06:37:47;;;;;;;0.95;0.50;;;;;;;28.34;35.01;101876.72;5097864;28;20383;-45
2022/07/30 06:40:16;;;;;;;2.17;0.68;;;;;;;28.40;35.39;101867.09;5115822;28;20031;-46
2022/07/30 06:42:44;;;;;;;1.50;0.70;;;;;;;28.41;35.17;101864.47;5115964;28;20028;-50
2022/07/30 06:45:13;;;;;;;1.00;0.40;;;;;;;28.44;35.41;101863.63;5097899;28;20394;-46
2022/07/30 06:47:42;;;;;;;4.90;0.98;;;;;;;28.52;35.52;101871.63;5115789;28;20020;-46
2022/07/30 06:50:10;;;;;;;1.40;0.70;;;;;;;28.57;35.59;101869.88;5097879;28;20114;-46
2022/07/30 06:52:38;;;;;;;3.22;0.70;;;;;;;28.63;35.47;101867.28;5115607;28;20045;-45
2022/07/30 06:55:07;;;;;;;0.40;0.40;;;;;;;28.69;35.27;101869.09;5115531;28;20020;-45
2022/07/30 06:57:36;;;;;;;1.70;0.50;;;;;;;28.75;35.14;101874.47;5115731;28;20027;-57
2022/07/30 07:00:05;;;;;;;2.25;0.75;;;;;;;28.76;35.42;101871.81;5115658;28;20036;-47
2022/07/30 07:02:34;;;;;;;2.25;0.60;;;;;;;28.75;36.00;101870.03;5115833;28;20478;-49
2022/07/30 07:05:03;;;;;;;1.13;0.40;;;;;;;28.77;35.58;101875.34;5115266;28;20030;-47
2022/07/30 07:07:31;;;;;;;1.25;0.55;;;;;;;28.80;35.77;101875.34;5115408;28;20027;-47
2022/07/30 07:10:01;;;;;;;1.30;0.60;;;;;;;28.86;35.78;101871.91;5115846;28;20539;-49
2022/07/30 07:12:29;;;;;;;0.88;0.40;;;;;;;28.86;35.73;101867.47;5115352;28;20024;-46
2022/07/30 07:14:58;;;;;;;1.73;0.50;;;;;;;28.83;35.42;101851.59;5097195;28;20019;-49
2022/07/30 07:17:27;;;;;;;0.63;0.40;;;;;;;29.00;35.73;101886.06;5114805;28;20026;-46
2022/07/30 07:19:55;;;;;;;1.42;0.60;;;;;;;29.07;35.75;101889.63;5096914;28;20023;-50
2022/07/30 07:22:24;;;;;;;1.73;0.90;;;;;;;29.11;35.62;101892.28;5114738;28;20441;-47
2022/07/30 07:24:52;;;;;;;0.45;0.30;;;;;;;29.18;35.71;101895.84;5114672;28;20043;-48
2022/07/30 07:27:21;;;;;;;0.68;0.40;;;;;;;29.19;35.91;101892.31;5115153;28;20470;-49
2022/07/30 07:29:49;;;;;;;1.08;0.50;;;;;;;29.18;35.70;101884.41;5114382;28;20031;-49
2022/07/30 07:32:18;;;;;;;0.88;0.50;;;;;;;29.28;35.74;101898.56;5114557;28;20160;-45
2022/07/30 07:34:46;;;;;;;1.20;0.40;;;;;;;29.32;35.46;101908.25;5114816;28;20039;-48
2022/07/30 07:37:15;;;;;;;1.00;0.40;;;;;;;29.32;35.62;101903.84;5115373;28;20020;-49
2022/07/30 07:39:44;;;;;;;0.80;0.38;;;;;;;29.42;35.28;101918.03;5115023;28;20470;-46
2022/07/30 07:42:12;;;;;;;1.65;0.50;;;;;;;29.47;35.21;101915.41;5095864;28;20024;-47
2022/07/30 07:44:41;;;;;;;0.95;0.40;;;;;;;29.49;35.33;101921.59;5114884;28;20027;-48
2022/07/30 07:47:09;;;;;;;0.43;0.30;;;;;;;29.49;35.63;101916.31;5096596;28;20133;-50
2022/07/30 07:49:38;;;;;;;0.60;0.35;;;;;;;29.56;35.33;101920.72;5114633;28;20077;-44
2022/07/30 07:52:07;;;;;;;0.20;0.20;;;;;;;29.62;35.39;101918.13;5096326;28;20067;-45
2022/07/30 07:54:35;;;;;;;1.25;0.40;;;;;;;29.67;35.26;101931.34;5113583;28;20062;-50
2022/07/30 07:57:06;;;;;;;1.10;0.60;;;;;;;29.70;35.17;101928.72;5114598;28;20425;-49
2022/07/30 07:59:35;;;;;;;0.50;0.50;;;;;;;29.74;35.14;101924.31;5114165;28;20030;-56
2022/07/30 08:02:04;;;;;;;1.60;0.40;;;;;;;29.75;35.32;101920.78;5114617;28;20539;-47
2022/07/30 08:04:32;;;;;;;1.17;0.40;;;;;;;29.79;35.22;101927.88;5114416;28;20028;-49
2022/07/30 08:07:01;;;;;;;1.35;0.40;;;;;;;29.78;35.02;101923.44;5113861;28;20501;-56
2022/07/30 08:09:30;;;;;;;0.80;0.50;;;;;;;29.82;35.04;101941.97;5114217;28;20449;-48
2022/07/30 08:11:59;;;;;;;0.15;0.15;;;;;;;29.78;35.31;101931.38;5113944;28;20027;-46
2022/07/30 08:14:27;;;;;;;1.48;0.50;;;;;;;29.80;35.07;101932.28;5113522;28;20027;-49
2022/07/30 08:16:55;;;;;;;0.70;0.60;;;;;;;29.84;34.89;101948.16;5096047;28;20111;-49
2022/07/30 08:19:25;;;;;;;0.90;0.30;;;;;;;29.87;34.79;101942.00;5113707;28;20475;-46
2022/07/30 08:21:53;;;;;;;0.90;0.63;;;;;;;29.85;34.97;101933.19;5114129;28;20386;-55
2022/07/30 08:24:22;;;;;;;0.38;0.30;;;;;;;29.90;35.00;101939.34;5096008;28;20073;-49
2022/07/30 08:26:50;;;;;;;0.20;0.20;;;;;;;29.91;35.08;101943.78;5095899;28;20055;-47
2022/07/30 08:29:19;;;;;;;1.10;0.25;;;;;;;29.95;34.43;101940.28;5114265;28;20374;-45
2022/07/30 08:31:47;;;;;;;0.65;0.40;;;;;;;29.97;34.90;101933.25;5113636;28;20482;-56
2022/07/30 08:34:16;;;;;;;0.50;0.40;;;;;;;30.01;34.84;101935.03;5113486;28;20277;-47
2022/07/30 08:36:45;;;;;;;0.43;0.22;;;;;;;30.03;34.89;101934.16;5113450;28;20031;-48
2022/07/30 08:39:14;;;;;;;0.88;0.40;;;;;;;30.08;34.68;101929.75;5113979;28;20110;-46
2022/07/30 08:41:43;;;;;;;0.30;0.30;;;;;;;30.08;34.93;101932.38;5113662;28;20028;-45
2022/07/30 08:44:12;;;;;;;0.40;0.40;;;;;;;30.09;34.59;101935.06;5113948;28;20024;-47
2022/07/30 08:46:42;;;;;;;0.30;0.30;;;;;;;30.12;34.62;101932.38;5113362;28;20038;-45
2022/07/30 08:49:13;;;;;;;0.35;0.22;;;;;;;30.17;34.92;101932.41;5113624;28;20032;-47
2022/07/30 08:51:42;;;;;;;0.30;0.20;;;;;;;30.14;34.75;101920.03;5113236;28;20534;-46
2022/07/30 08:54:10;;;;;;;0.30;0.30;;;;;;;30.25;34.69;101929.78;5117686;28;20028;-49
2022/07/30 08:56:39;;;;;;;0.70;0.40;;;;;;;30.29;34.96;101929.78;5118000;28;20092;-48
2022/07/30 08:59:08;;;;;;;0.40;0.30;;;;;;;30.31;34.74;101925.38;5118122;28;20019;-47
2022/07/30 09:01:37;;;;;;;0.30;0.30;;;;;;;30.34;34.85;101923.63;5099940;28;20036;-50
2022/07/30 09:04:05;;;;;;;0.30;0.30;;;;;;;30.35;34.80;101926.25;5117620;28;20611;-45
2022/07/30 09:06:34;;;;;;;0.30;0.25;;;;;;;30.38;34.60;101920.06;5117472;28;20423;-48
2022/07/30 09:09:02;;;;;;;0.60;0.30;;;;;;;30.36;34.51;101920.09;5117829;28;20020;-47
2022/07/30 09:11:33;;;;;;;0.38;0.20;;;;;;;30.42;34.82;101928.03;5117066;28;20035;-47
2022/07/30 09:14:10;;;;;;;1.17;0.17;;;;;;;30.42;35.09;101916.56;5099866;28;20098;-46
2022/07/30 09:16:40;;;;;;;0.35;0.30;;;;;;;30.49;34.44;101930.66;5117227;28;20023;-55
2022/07/30 09:19:14;;;;;;;0.55;0.20;;;;;;;30.54;34.41;101931.56;5099355;28;20028;-47
2022/07/30 09:21:43;;;;;;;0.40;0.30;;;;;;;30.54;34.65;101926.28;5117766;28;20027;-46
2022/07/30 09:24:12;;;;;;;0.20;0.20;;;;;;;30.58;34.68;101934.25;5116758;28;20044;-50
2022/07/30 09:27:00;;;;;;;1.30;0.32;;;;;;;30.58;34.72;101923.66;5117504;28;20372;-56
2022/07/30 09:29:30;;;;;;;0.75;0.30;;;;;;;30.63;34.66;101928.06;5117102;28;20027;-46
2022/07/30 09:32:01;;;;;;;0.20;0.20;;;;;;;30.70;34.50;101927.16;5117290;28;20027;-47
2022/07/30 09:34:30;;;;;;;0.20;0.20;;;;;;;30.71;34.28;101928.94;5117188;28;20053;-48
2022/07/30 09:37:01;;;;;;;0.30;0.30;;;;;;;30.72;34.68;101928.94;5116762;28;20047;-47
2022/07/30 09:39:40;;;;;;;0.22;0.10;;;;;;;30.71;34.80;101928.94;5098557;28;20027;-49
2022/07/30 09:42:18;;;;;;;0.30;0.20;;;;;;;30.70;34.31;101921.88;5116882;28;20422;-47
2022/07/30 09:44:48;;;;;;;0.45;0.30;;;;;;;30.78;34.68;101930.72;5117543;28;20024;-53
2022/07/30 09:47:36;;;;;;;0.25;0.25;;;;;;;30.76;34.24;101924.53;5098993;28;20038;-50
2022/07/30 09:50:12;;;;;;;0.20;0.20;;;;;;;30.84;34.71;101935.13;5098290;28;20020;-48
2022/07/30 09:52:46;;;;;;;0.60;0.20;;;;;;;30.87;34.49;101933.34;5116799;28;20024;-47
2022/07/30 09:55:15;;;;;;;0.95;0.28;;;;;;;30.87;34.23;101933.34;5098613;28;20390;-45
2022/07/30 09:58:04;;;;;;;0.50;0.35;;;;;;;30.85;34.70;101932.47;5098560;28;20042;-48
2022/07/30 10:00:35;;;;;;;0.20;0.20;;;;;;;30.95;34.16;101943.91;5108925;28;20035;-50
2022/07/30 10:03:19;;;;;;;0.35;0.30;;;;;;;30.93;34.21;101935.13;5117302;28;20029;-48
2022/07/30 10:05:53;;;;;;;0.63;0.30;;;;;;;30.99;34.15;101943.03;5116213;28;20059;-45
2022/07/30 10:08:41;;;;;;;0.77;0.10;;;;;;;31.01;34.10;101943.91;5116414;28;20024;-45
2022/07/30 10:11:13;;;;;;;0.65;0.25;;;;;;;31.03;34.50;101939.50;5116149;28;20035;-46
2022/07/30 10:13:42;;;;;;;0.43;0.35;;;;;;;31.00;34.07;101942.16;5116480;28;20031;-51
2022/07/30 10:16:11;;;;;;;0.40;0.20;;;;;;;31.06;34.37;101941.25;5116246;28;20023;-49
2022/07/30 10:18:41;;;;;;;0.20;0.20;;;;;;;31.04;34.52;101943.91;5116297;28;20031;-50
2022/07/30 10:21:09;;;;;;;0.47;0.30;;;;;;;31.06;34.48;101941.25;5081186;28;20447;-47
2022/07/30 10:23:39;;;;;;;0.45;0.20;;;;;;;31.07;34.29;101937.72;5116524;28;20039;-46
2022/07/30 10:26:08;;;;;;;0.22;0.10;;;;;;;31.09;34.22;101935.97;5116502;28;20051;-46
2022/07/30 10:28:37;;;;;;;2.03;0.30;;;;;;;31.12;34.03;101943.00;5116601;28;20387;-50
2022/07/30 10:31:06;;;;;;;0.00;0.00;;;;;;;31.15;33.93;101940.38;5098437;28;20035;-51
2022/07/30 10:33:34;;;;;;;0.40;0.30;;;;;;;31.17;33.94;101942.16;5115772;28;20032;-49
2022/07/30 10:36:03;;;;;;;0.30;0.17;;;;;;;31.17;33.82;101930.66;5115146;28;20020;-48
2022/07/30 10:38:34;;;;;;;0.30;0.30;;;;;;;31.16;34.11;101934.22;5080953;28;20066;-46
2022/07/30 10:41:09;;;;;;;0.10;0.10;;;;;;;31.20;33.88;101934.19;5097516;28;20024;-50
2022/07/30 10:43:55;;;;;;;;;;;;;;;31.22;33.93;101931.56;5116401;28;20031;-48
2022/07/30 10:46:45;;;;;;;0.57;0.20;;;;;;;31.25;34.12;101939.50;5115753;28;19980;-50
2022/07/30 10:49:16;;;;;;;0.63;0.30;;;;;;;31.26;33.58;101935.97;5108090;28;20038;-49
2022/07/30 10:51:49;;;;;;;0.43;0.28;;;;;;;31.25;34.12;101930.66;5115718;28;20063;-48
2022/07/30 10:54:38;;;;;;;0.15;0.15;;;;;;;31.28;33.96;101933.31;5115839;28;20073;-48
2022/07/30 10:57:13;;;;;;;0.28;0.10;;;;;;;31.31;33.81;101928.84;5115517;28;20491;-49
2022/07/30 10:59:50;;;;;;;0.30;0.22;;;;;;;31.30;34.05;101929.75;5115079;28;20035;-51
2022/07/30 11:02:20;;;;;;;0.50;0.20;;;;;;;31.35;34.04;101927.09;5115292;28;20032;-49
2022/07/30 11:04:49;;;;;;;1.20;0.40;;;;;;;31.33;33.92;101918.28;5114741;28;20051;-53
2022/07/30 11:07:36;;;;;;;1.30;0.22;;;;;;;31.32;33.58;101917.38;5115354;28;20470;-46
2022/07/30 11:10:05;;;;;;;0.50;0.20;;;;;;;31.37;33.70;101914.69;5115280;28;20059;-49
2022/07/30 11:12:44;;;;;;;1.90;0.30;;;;;;;31.34;33.75;101920.91;5097209;28;20020;-48
2022/07/30 11:15:14;;;;;;;0.55;0.40;;;;;;;31.32;33.76;101917.38;5114435;28;20490;-45
2022/07/30 11:18:02;;;;;;;0.30;0.30;;;;;;;31.37;33.76;101920.00;5114102;28;20028;-50
2022/07/30 11:20:32;;;;;;;0.20;0.20;;;;;;;31.40;33.61;101920.00;5115333;28;20051;-48
2022/07/30 11:23:29;;;;;;;0.30;0.20;;;;;;;31.38;34.06;101916.47;5114718;28;20046;-49
2022/07/30 11:25:58;;;;;;;0.20;0.20;;;;;;;31.44;33.86;101915.59;5106075;28;20042;-48
2022/07/30 11:28:37;;;;;;;0.30;0.30;;;;;;;31.45;33.69;101918.22;5114729;28;20028;-51
2022/07/30 11:31:27;;;;;;;0.50;0.32;;;;;;;31.46;33.81;101914.69;5114972;28;20038;-47
2022/07/30 11:34:18;;;;;;;2.63;0.30;;;;;;;31.46;34.07;101911.13;5115024;28;20551;-49
2022/07/30 11:37:06;;;;;;;0.65;0.35;;;;;;;31.49;34.15;101913.78;5114643;28;20551;-50
2022/07/30 11:39:54;;;;;;;0.32;0.20;;;;;;;31.50;34.10;101918.19;5088311;28;20032;-47
2022/07/30 11:42:41;;;;;;;0.20;0.20;;;;;;;31.49;34.32;101919.06;5106091;28;20081;-47